createdAt,value
2022-09-27T00:00:28.873Z,26.40
2022-09-27T00:01:28.915Z,21.70
2022-09-27T00:02:28.908Z,19.60
2022-09-27T00:03:28.804Z,8.70
2022-09-27T00:04:28.779Z,10.80
2022-09-27T00:05:28.789Z,8.60
2022-09-27T00:06:28.812Z,11.50
2022-09-27T00:07:28.775Z,11.50
2022-09-27T00:08:28.753Z,12.40
2022-09-27T00:09:28.761Z,10.00
2022-09-27T00:10:28.724Z,11.60
2022-09-27T00:11:28.722Z,12.20
2022-09-27T00:12:28.682Z,13.60
2022-09-27T00:13:28.687Z,13.20
2022-09-27T00:14:29.101Z,9.20
2022-09-27T00:15:28.637Z,12.60
2022-09-27T00:16:28.732Z,10.40
2022-09-27T00:17:28.882Z,11.50
2022-09-27T00:18:28.596Z,12.80
2022-09-27T00:19:29.406Z,10.20
2022-09-27T00:20:28.806Z,11.80
2022-09-27T00:21:28.586Z,8.70
2022-09-27T00:22:28.795Z,13.60
2022-09-27T00:23:28.609Z,9.40
2022-09-27T00:24:28.537Z,11.80
2022-09-27T00:25:28.549Z,14.30
2022-09-27T00:26:28.491Z,13.30
2022-09-27T00:27:28.481Z,8.80
2022-09-27T00:28:28.460Z,12.70
2022-09-27T00:29:28.554Z,14.00
2022-09-27T00:30:28.435Z,10.30
2022-09-27T00:31:28.605Z,13.30
2022-09-27T00:32:28.404Z,12.90
2022-09-27T00:33:28.667Z,12.00
2022-09-27T00:34:28.628Z,13.80
2022-09-27T00:35:28.392Z,15.70
2022-09-27T00:36:28.385Z,13.10
2022-09-27T00:37:28.392Z,12.80
2022-09-27T00:38:28.329Z,15.50
2022-09-27T00:39:28.359Z,16.90
2022-09-27T00:40:28.369Z,16.70
2022-09-27T00:41:28.423Z,13.60
2022-09-27T00:42:28.304Z,16.40
2022-09-27T00:43:28.359Z,13.20
2022-09-27T00:44:28.266Z,12.60
2022-09-27T00:45:28.260Z,11.20
2022-09-27T00:46:28.314Z,12.70
2022-09-27T00:47:28.228Z,10.70
2022-09-27T00:48:28.203Z,14.90
2022-09-27T00:49:28.237Z,15.30
2022-09-27T00:50:28.167Z,15.80
2022-09-27T00:51:28.196Z,15.10
2022-09-27T00:52:28.152Z,16.70
2022-09-27T00:53:28.157Z,13.30
2022-09-27T00:54:28.128Z,17.30
2022-09-27T00:55:28.160Z,14.20
2022-09-27T00:56:28.093Z,13.00
2022-09-27T00:57:28.098Z,14.70
2022-09-27T00:58:28.061Z,16.00
2022-09-27T00:59:28.074Z,13.70
2022-09-27T01:00:28.051Z,13.30
2022-09-27T01:01:28.155Z,12.50
2022-09-27T01:02:28.104Z,19.70
2022-09-27T01:03:28.030Z,15.30
2022-09-27T01:04:27.981Z,13.10
2022-09-27T01:05:27.992Z,15.10
2022-09-27T01:06:28.272Z,12.70
2022-09-27T01:07:28.424Z,13.60
2022-09-27T01:08:27.936Z,13.90
2022-09-27T01:09:28.190Z,14.90
2022-09-27T01:10:27.921Z,14.30
2022-09-27T01:11:27.926Z,14.40
2022-09-27T01:12:27.901Z,12.00
2022-09-27T01:13:27.926Z,15.70
2022-09-27T01:14:27.873Z,14.30
2022-09-27T01:15:27.911Z,18.60
2022-09-27T01:16:27.837Z,15.80
2022-09-27T01:17:27.911Z,15.90
2022-09-27T01:18:27.818Z,12.30
2022-09-27T01:19:28.376Z,16.20
2022-09-27T01:20:27.767Z,12.20
2022-09-27T01:21:27.806Z,13.40
2022-09-27T01:22:28.009Z,14.30
2022-09-27T01:23:28.484Z,17.10
2022-09-27T01:24:27.740Z,16.60
2022-09-27T01:25:27.763Z,13.40
2022-09-27T01:26:27.984Z,14.60
2022-09-27T01:27:27.717Z,20.20
2022-09-27T01:28:27.668Z,13.20
2022-09-27T01:29:27.679Z,14.10
2022-09-27T01:30:27.893Z,14.50
2022-09-27T01:31:27.730Z,17.50
2022-09-27T01:32:27.643Z,11.70
2022-09-27T01:33:28.574Z,15.90
2022-09-27T01:34:27.594Z,14.00
2022-09-27T01:35:27.842Z,12.50
2022-09-27T01:36:29.286Z,15.30
2022-09-27T01:37:27.609Z,16.70
2022-09-27T01:38:27.785Z,14.90
2022-09-27T01:39:27.544Z,11.20
2022-09-27T01:40:27.549Z,11.30
2022-09-27T01:41:27.548Z,14.50
2022-09-27T01:42:27.522Z,17.00
2022-09-27T01:43:27.503Z,12.60
2022-09-27T01:44:27.461Z,13.70
2022-09-27T01:45:27.462Z,11.70
2022-09-27T01:46:27.610Z,12.50
2022-09-27T01:47:27.463Z,13.30
2022-09-27T01:48:27.452Z,14.20
2022-09-27T01:49:27.408Z,13.50
2022-09-27T01:50:27.380Z,14.70
2022-09-27T01:51:27.410Z,13.40
2022-09-27T01:52:27.360Z,13.10
2022-09-27T01:53:27.665Z,13.50
2022-09-27T01:54:27.379Z,14.10
2022-09-27T01:55:27.406Z,13.60
2022-09-27T01:56:27.327Z,15.40
2022-09-27T01:57:27.581Z,15.50
2022-09-27T01:58:27.283Z,14.00
2022-09-27T01:59:27.348Z,11.40
2022-09-27T02:00:27.253Z,13.30
2022-09-27T02:01:27.302Z,13.80
2022-09-27T02:02:27.468Z,12.10
2022-09-27T02:03:27.240Z,17.30
2022-09-27T02:04:27.218Z,12.90
2022-09-27T02:05:27.230Z,13.60
2022-09-27T02:06:28.068Z,13.90
2022-09-27T02:07:27.174Z,15.10
2022-09-27T02:08:27.177Z,10.00
2022-09-27T02:09:27.149Z,15.20
2022-09-27T02:10:27.370Z,13.20
2022-09-27T02:11:27.406Z,12.40
2022-09-27T02:13:25.040Z,13.20
2022-09-27T02:14:26.023Z,16.20
2022-09-27T02:15:25.955Z,12.90
2022-09-27T02:16:26.080Z,10.30
2022-09-27T02:17:25.980Z,12.60
2022-09-27T02:18:25.998Z,11.60
2022-09-27T02:19:25.922Z,11.80
2022-09-27T02:20:25.903Z,13.20
2022-09-27T02:21:25.881Z,10.20
2022-09-27T02:22:25.909Z,13.60
2022-09-27T02:23:25.903Z,12.00
2022-09-27T02:24:25.913Z,13.90
2022-09-27T02:25:25.858Z,9.10
2022-09-27T02:26:25.890Z,11.90
2022-09-27T02:27:25.830Z,9.70
2022-09-27T02:28:25.813Z,12.20
2022-09-27T02:29:25.812Z,12.00
2022-09-27T02:30:25.769Z,13.90
2022-09-27T02:31:25.834Z,13.60
2022-09-27T02:32:25.748Z,11.60
2022-09-27T02:33:25.725Z,12.90
2022-09-27T02:34:25.730Z,10.50
2022-09-27T02:35:25.743Z,10.90
2022-09-27T02:36:25.687Z,13.00
2022-09-27T02:37:25.669Z,14.20
2022-09-27T02:38:25.721Z,9.80
2022-09-27T02:39:25.655Z,14.40
2022-09-27T02:40:25.684Z,11.50
2022-09-27T02:41:25.651Z,9.00
2022-09-27T02:42:25.667Z,10.50
2022-09-27T02:43:25.619Z,7.10
2022-09-27T02:44:25.590Z,8.90
2022-09-27T02:45:25.608Z,10.70
2022-09-27T02:46:25.684Z,11.30
2022-09-27T02:47:25.609Z,7.90
2022-09-27T02:48:25.575Z,7.90
2022-09-27T02:49:25.548Z,10.80
2022-09-27T02:50:25.522Z,8.20
2022-09-27T02:51:25.495Z,8.80
2022-09-27T02:52:25.579Z,6.60
2022-09-27T02:53:25.495Z,9.70
2022-09-27T02:54:25.491Z,7.30
2022-09-27T02:55:25.474Z,8.90
2022-09-27T02:56:25.446Z,8.50
2022-09-27T02:57:25.411Z,9.30
2022-09-27T02:58:25.428Z,13.80
2022-09-27T02:59:25.498Z,10.70
2022-09-27T03:00:25.392Z,9.70
2022-09-27T03:01:25.396Z,13.10
2022-09-27T03:02:25.488Z,13.30
2022-09-27T03:03:25.330Z,14.60
2022-09-27T03:04:25.343Z,12.50
2022-09-27T03:05:25.351Z,15.00
2022-09-27T03:06:25.347Z,14.40
2022-09-27T03:07:25.324Z,14.80
2022-09-27T03:08:25.303Z,13.00
2022-09-27T03:09:25.295Z,12.20
2022-09-27T03:10:25.255Z,12.00
2022-09-27T03:11:25.262Z,12.80
2022-09-27T03:12:25.257Z,13.70
2022-09-27T03:13:25.222Z,13.30
2022-09-27T03:14:25.203Z,11.50
2022-09-27T03:15:25.207Z,10.70
2022-09-27T03:16:25.245Z,12.00
2022-09-27T03:17:25.205Z,10.30
2022-09-27T03:18:25.172Z,10.20
2022-09-27T03:19:25.158Z,9.50
2022-09-27T03:20:25.186Z,11.30
2022-09-27T03:21:25.111Z,7.90
2022-09-27T03:22:25.108Z,9.50
2022-09-27T03:23:25.117Z,11.40
2022-09-27T03:24:25.100Z,10.50
2022-09-27T03:25:25.075Z,10.00
2022-09-27T03:26:25.084Z,8.50
2022-09-27T03:27:25.064Z,10.20
2022-09-27T03:28:25.111Z,10.30
2022-09-27T03:29:25.015Z,8.60
2022-09-27T03:30:25.030Z,10.90
2022-09-27T03:31:25.055Z,14.10
2022-09-27T03:32:24.998Z,10.00
2022-09-27T03:33:25.003Z,9.90
2022-09-27T03:34:25.014Z,9.80
2022-09-27T03:35:24.926Z,10.00
2022-09-27T03:36:24.942Z,8.70
2022-09-27T03:37:24.923Z,8.10
2022-09-27T03:38:25.016Z,8.40
2022-09-27T03:39:24.987Z,8.90
2022-09-27T03:40:24.939Z,7.10
2022-09-27T03:41:24.981Z,6.90
2022-09-27T03:42:24.866Z,6.80
2022-09-27T03:43:24.999Z,6.30
2022-09-27T03:44:24.868Z,8.80
2022-09-27T03:45:24.909Z,7.90
2022-09-27T03:46:24.885Z,6.30
2022-09-27T03:47:24.793Z,7.80
2022-09-27T03:48:28.134Z,8.90
2022-09-27T03:49:24.823Z,8.20
2022-09-27T03:50:24.783Z,8.40
2022-09-27T03:51:24.788Z,6.90
2022-09-27T03:52:24.721Z,9.50
2022-09-27T03:53:24.720Z,10.20
2022-09-27T03:54:24.703Z,8.70
2022-09-27T03:55:24.683Z,8.90
2022-09-27T03:56:24.664Z,8.90
2022-09-27T03:57:24.696Z,9.90
2022-09-27T03:58:24.635Z,8.50
2022-09-27T03:59:24.617Z,8.70
2022-09-27T04:00:24.622Z,8.60
2022-09-27T04:01:24.654Z,9.90
2022-09-27T04:02:24.632Z,9.70
2022-09-27T04:03:24.606Z,6.80
2022-09-27T04:04:24.560Z,8.20
2022-09-27T04:05:24.530Z,7.00
2022-09-27T04:06:24.531Z,9.90
2022-09-27T04:07:24.527Z,10.60
2022-09-27T04:08:24.582Z,6.80
2022-09-27T04:09:24.501Z,7.40
2022-09-27T04:10:24.480Z,7.30
2022-09-27T04:11:24.453Z,9.20
2022-09-27T04:12:24.466Z,8.70
2022-09-27T04:13:24.436Z,9.50
2022-09-27T04:14:24.462Z,6.80
2022-09-27T04:15:24.408Z,8.40
2022-09-27T04:16:24.460Z,8.00
2022-09-27T04:17:24.389Z,7.90
2022-09-27T04:18:24.386Z,9.20
2022-09-27T04:19:24.355Z,7.50
2022-09-27T04:20:24.389Z,9.50
2022-09-27T04:21:24.332Z,8.60
2022-09-27T04:22:24.446Z,10.60
2022-09-27T04:23:29.053Z,8.00
2022-09-27T04:24:24.368Z,7.30
2022-09-27T04:25:24.305Z,8.40
2022-09-27T04:26:24.329Z,5.80
2022-09-27T04:27:24.322Z,6.70
2022-09-27T04:28:24.289Z,8.80
2022-09-27T04:29:24.245Z,5.70
2022-09-27T04:30:24.233Z,6.90
2022-09-27T04:31:24.311Z,7.40
2022-09-27T04:32:24.261Z,6.80
2022-09-27T04:33:24.208Z,7.00
2022-09-27T04:34:24.181Z,7.00
2022-09-27T04:35:24.167Z,8.20
2022-09-27T04:36:24.191Z,6.60
2022-09-27T04:37:24.158Z,7.10
2022-09-27T04:38:24.228Z,7.90
2022-09-27T04:39:24.099Z,7.70
2022-09-27T04:40:24.183Z,5.20
2022-09-27T04:41:24.080Z,8.70
2022-09-27T04:42:24.067Z,9.10
2022-09-27T04:43:24.156Z,7.70
2022-09-27T04:44:24.047Z,7.10
2022-09-27T04:45:24.034Z,8.20
2022-09-27T04:46:24.110Z,7.70
2022-09-27T04:47:24.007Z,8.50
2022-09-27T04:48:23.998Z,6.30
2022-09-27T04:49:23.998Z,8.60
2022-09-27T04:50:23.992Z,7.10
2022-09-27T04:51:23.963Z,8.90
2022-09-27T04:52:23.945Z,7.00
2022-09-27T04:53:23.925Z,7.10
2022-09-27T04:54:23.916Z,7.50
2022-09-27T04:55:23.971Z,7.80
2022-09-27T04:56:23.901Z,7.70
2022-09-27T04:57:23.826Z,9.10
2022-09-27T04:58:23.839Z,6.50
2022-09-27T04:59:23.802Z,7.10
2022-09-27T05:00:23.812Z,6.20
2022-09-27T05:01:23.854Z,7.50
2022-09-27T05:02:23.855Z,6.10
2022-09-27T05:03:23.744Z,6.90
2022-09-27T05:04:23.763Z,5.40
2022-09-27T05:05:23.704Z,6.90
2022-09-27T05:06:23.783Z,10.70
2022-09-27T05:07:23.720Z,5.60
2022-09-27T05:08:23.700Z,7.50
2022-09-27T05:09:23.687Z,5.80
2022-09-27T05:10:23.651Z,5.50
2022-09-27T05:11:23.642Z,6.80
2022-09-27T05:12:23.695Z,7.40
2022-09-27T05:13:23.652Z,6.40
2022-09-27T05:14:23.624Z,6.20
2022-09-27T05:15:23.576Z,4.90
2022-09-27T05:16:23.667Z,5.10
2022-09-27T05:17:23.573Z,4.70
2022-09-27T05:18:23.699Z,6.10
2022-09-27T05:19:23.570Z,5.20
2022-09-27T05:20:23.527Z,10.10
2022-09-27T05:21:23.499Z,9.00
2022-09-27T05:22:23.533Z,5.40
2022-09-27T05:23:23.526Z,8.10
2022-09-27T05:24:23.494Z,8.10
2022-09-27T05:25:23.454Z,7.20
2022-09-27T05:26:23.585Z,9.40
2022-09-27T05:27:23.507Z,8.50
2022-09-27T05:28:23.452Z,10.60
2022-09-27T05:29:23.431Z,7.40
2022-09-27T05:30:23.451Z,9.20
2022-09-27T05:31:23.435Z,10.30
2022-09-27T05:32:23.378Z,8.80
2022-09-27T05:33:23.367Z,9.30
2022-09-27T05:34:23.365Z,6.80
2022-09-27T05:35:23.385Z,6.30
2022-09-27T05:36:23.408Z,7.00
2022-09-27T05:37:23.310Z,10.20
2022-09-27T05:38:23.301Z,8.90
2022-09-27T05:39:23.277Z,8.60
2022-09-27T05:40:40.132Z,6.40
2022-09-27T05:41:23.411Z,5.80
2022-09-27T05:42:23.254Z,5.00
2022-09-27T05:43:23.250Z,9.80
2022-09-27T05:44:23.227Z,7.50
2022-09-27T05:45:23.195Z,8.70
2022-09-27T05:46:23.269Z,7.30
2022-09-27T05:47:23.201Z,6.60
2022-09-27T05:48:23.194Z,8.10
2022-09-27T05:49:23.182Z,5.80
2022-09-27T05:50:23.149Z,5.40
2022-09-27T05:51:23.161Z,7.10
2022-09-27T05:52:23.401Z,7.40
2022-09-27T05:53:23.136Z,6.20
2022-09-27T05:54:23.077Z,8.40
2022-09-27T05:55:23.137Z,5.90
2022-09-27T05:56:23.065Z,5.60
2022-09-27T05:57:23.115Z,6.70
2022-09-27T05:58:23.028Z,8.10
2022-09-27T05:59:23.076Z,7.10
2022-09-27T06:00:23.056Z,6.90
2022-09-27T06:01:23.026Z,7.40
2022-09-27T06:02:23.049Z,8.00
2022-09-27T06:03:23.044Z,7.80
2022-09-27T06:04:22.992Z,8.40
2022-09-27T06:05:22.964Z,6.50
2022-09-27T06:06:22.979Z,9.70
2022-09-27T06:07:22.939Z,7.60
2022-09-27T06:08:22.896Z,8.00
2022-09-27T06:09:22.919Z,7.20
2022-09-27T06:10:22.913Z,5.90
2022-09-27T06:11:22.878Z,6.00
2022-09-27T06:12:22.847Z,5.90
2022-09-27T06:13:22.897Z,11.10
2022-09-27T06:14:22.818Z,7.10
2022-09-27T06:15:22.863Z,5.80
2022-09-27T06:16:22.896Z,5.70
2022-09-27T06:17:22.798Z,8.70
2022-09-27T06:18:22.816Z,6.50
2022-09-27T06:19:22.763Z,6.30
2022-09-27T06:20:22.822Z,7.10
2022-09-27T06:21:22.758Z,6.20
2022-09-27T06:22:22.816Z,6.60
2022-09-27T06:23:22.728Z,7.60
2022-09-27T06:24:22.724Z,6.00
2022-09-27T06:25:22.701Z,7.60
2022-09-27T06:26:22.735Z,7.40
2022-09-27T06:27:22.719Z,7.60
2022-09-27T06:28:22.679Z,6.40
2022-09-27T06:29:22.644Z,8.30
2022-09-27T06:30:22.623Z,6.80
2022-09-27T06:31:22.709Z,9.40
2022-09-27T06:32:22.698Z,9.00
2022-09-27T06:33:22.641Z,9.70
2022-09-27T06:34:22.582Z,8.60
2022-09-27T06:35:22.589Z,8.00
2022-09-27T06:36:22.553Z,10.30
2022-09-27T06:37:22.541Z,12.30
2022-09-27T06:38:22.602Z,8.30
2022-09-27T06:39:22.526Z,9.30
2022-09-27T06:40:22.532Z,8.10
2022-09-27T06:41:22.509Z,10.00
2022-09-27T06:42:22.483Z,9.80
2022-09-27T06:43:22.513Z,10.50
2022-09-27T06:44:22.436Z,12.10
2022-09-27T06:45:22.447Z,8.40
2022-09-27T06:46:22.510Z,12.40
2022-09-27T06:47:22.433Z,10.90
2022-09-27T06:48:22.380Z,12.20
2022-09-27T06:49:22.479Z,11.00
2022-09-27T06:50:22.381Z,10.10
2022-09-27T06:51:22.356Z,12.50
2022-09-27T06:52:22.345Z,9.20
2022-09-27T06:53:22.349Z,11.70
2022-09-27T06:54:22.399Z,11.40
2022-09-27T06:55:22.301Z,13.50
2022-09-27T06:56:22.300Z,10.30
2022-09-27T06:57:22.355Z,11.30
2022-09-27T06:58:22.267Z,13.50
2022-09-27T06:59:22.269Z,12.00
2022-09-27T07:00:22.268Z,10.30
2022-09-27T07:01:22.304Z,10.30
2022-09-27T07:02:22.259Z,11.80
2022-09-27T07:03:22.202Z,12.00
2022-09-27T07:04:22.201Z,9.40
2022-09-27T07:05:22.183Z,14.10
2022-09-27T07:06:22.194Z,14.40
2022-09-27T07:07:22.156Z,12.10
2022-09-27T07:08:22.146Z,11.20
2022-09-27T07:09:22.196Z,11.90
2022-09-27T07:10:22.104Z,11.70
2022-09-27T07:11:22.109Z,12.90
2022-09-27T07:12:22.166Z,13.90
2022-09-27T07:13:22.072Z,11.00
2022-09-27T07:14:22.071Z,11.50
2022-09-27T07:15:22.052Z,11.30
2022-09-27T07:16:22.112Z,11.00
2022-09-27T07:17:22.054Z,12.50
2022-09-27T07:18:22.020Z,10.70
2022-09-27T07:19:22.045Z,11.20
2022-09-27T07:20:21.971Z,13.80
2022-09-27T07:21:21.983Z,13.20
2022-09-27T07:22:21.960Z,13.10
2022-09-27T07:23:21.994Z,11.90
2022-09-27T07:24:22.001Z,13.00
2022-09-27T07:25:21.939Z,11.60
2022-09-27T07:26:21.892Z,9.10
2022-09-27T07:27:21.889Z,9.70
2022-09-27T07:28:22.487Z,12.90
2022-09-27T07:29:21.902Z,17.60
2022-09-27T07:30:21.857Z,12.20
2022-09-27T07:31:21.854Z,12.80
2022-09-27T07:32:21.829Z,10.10
2022-09-27T07:33:21.866Z,11.40
2022-09-27T07:34:21.785Z,8.00
2022-09-27T07:35:21.830Z,8.30
2022-09-27T07:36:21.783Z,8.70
2022-09-27T07:37:21.767Z,9.90
2022-09-27T07:38:21.738Z,8.90
2022-09-27T07:39:21.780Z,7.00
2022-09-27T07:40:21.805Z,7.50
2022-09-27T07:41:21.720Z,8.10
2022-09-27T07:42:21.716Z,10.40
2022-09-27T07:43:21.692Z,10.80
2022-09-27T07:44:21.664Z,8.60
2022-09-27T07:45:21.726Z,10.10
2022-09-27T07:46:21.682Z,8.00
2022-09-27T07:47:21.651Z,10.20
2022-09-27T07:48:21.609Z,10.00
2022-09-27T07:49:21.610Z,7.10
2022-09-27T07:50:21.594Z,7.00
2022-09-27T07:51:21.648Z,7.70
2022-09-27T07:52:21.568Z,9.90
2022-09-27T07:53:21.582Z,7.30
2022-09-27T07:54:21.539Z,7.50
2022-09-27T07:55:21.540Z,4.90
2022-09-27T07:56:21.531Z,6.40
2022-09-27T07:57:21.548Z,4.90
2022-09-27T07:58:21.475Z,6.70
2022-09-27T07:59:21.502Z,5.70
2022-09-27T08:00:21.458Z,7.30
2022-09-27T08:01:21.545Z,8.10
2022-09-27T08:02:21.481Z,7.20
2022-09-27T08:03:21.481Z,8.30
2022-09-27T08:04:21.411Z,8.60
2022-09-27T08:05:21.413Z,9.60
2022-09-27T08:06:21.380Z,9.30
2022-09-27T08:07:21.388Z,11.60
2022-09-27T08:08:21.364Z,10.80
2022-09-27T08:09:21.384Z,10.20
2022-09-27T08:10:21.338Z,10.70
2022-09-27T08:11:21.343Z,11.30
2022-09-27T08:12:21.297Z,11.20
2022-09-27T08:13:21.317Z,12.00
2022-09-27T08:14:21.339Z,12.00
2022-09-27T08:15:21.300Z,12.30
2022-09-27T08:16:21.270Z,14.40
2022-09-27T08:17:21.319Z,12.80
2022-09-27T08:18:21.239Z,14.40
2022-09-27T08:19:21.237Z,15.40
2022-09-27T08:20:21.203Z,15.20
2022-09-27T08:21:21.238Z,15.40
2022-09-27T08:22:21.216Z,14.20
2022-09-27T08:23:21.179Z,13.90
2022-09-27T08:24:21.162Z,15.90
2022-09-27T08:25:21.161Z,16.90
2022-09-27T08:26:21.152Z,13.40
2022-09-27T08:27:21.184Z,16.70
2022-09-27T08:28:21.166Z,14.90
2022-09-27T08:29:21.098Z,13.50
2022-09-27T08:30:21.075Z,12.30
2022-09-27T08:31:21.115Z,15.90
2022-09-27T08:32:23.427Z,14.50
2022-09-27T08:33:21.097Z,15.80
2022-09-27T08:34:21.016Z,12.90
2022-09-27T08:35:21.059Z,13.30
2022-09-27T08:36:21.014Z,15.50
2022-09-27T08:37:21.001Z,14.00
2022-09-27T08:38:20.970Z,12.30
2022-09-27T08:39:21.017Z,14.50
2022-09-27T08:40:20.966Z,12.90
2022-09-27T08:41:20.989Z,13.60
2022-09-27T08:42:20.929Z,9.50
2022-09-27T08:43:20.917Z,13.60
2022-09-27T08:44:20.966Z,11.40
2022-09-27T08:45:20.951Z,15.70
2022-09-27T08:46:20.876Z,10.50
2022-09-27T08:47:20.876Z,12.00
2022-09-27T08:48:20.856Z,9.70
2022-09-27T08:49:20.869Z,9.70
2022-09-27T08:50:20.957Z,9.60
2022-09-27T08:51:20.873Z,9.40
2022-09-27T08:52:20.787Z,13.40
2022-09-27T08:53:20.829Z,9.30
2022-09-27T08:54:20.757Z,9.70
2022-09-27T08:55:20.810Z,8.80
2022-09-27T08:56:20.743Z,9.70
2022-09-27T08:57:20.767Z,9.10
2022-09-27T08:58:20.750Z,8.90
2022-09-27T08:59:20.710Z,7.30
2022-09-27T09:00:20.672Z,7.50
2022-09-27T09:01:23.938Z,10.60
2022-09-27T09:02:20.827Z,8.10
2022-09-27T09:03:20.688Z,7.10
2022-09-27T09:04:20.673Z,6.00
2022-09-27T09:05:20.651Z,7.10
2022-09-27T09:06:20.619Z,6.80
2022-09-27T09:07:20.605Z,8.60
2022-09-27T09:08:20.613Z,7.60
2022-09-27T09:09:20.601Z,6.30
2022-09-27T09:10:20.559Z,5.90
2022-09-27T09:11:20.559Z,7.20
2022-09-27T09:12:20.604Z,6.10
2022-09-27T09:13:20.522Z,6.50
2022-09-27T09:14:20.654Z,6.40
2022-09-27T09:15:20.527Z,5.30
2022-09-27T09:16:20.544Z,5.70
2022-09-27T09:17:20.489Z,6.00
2022-09-27T09:18:20.457Z,4.70
2022-09-27T09:19:20.463Z,7.10
2022-09-27T09:20:20.489Z,6.80
2022-09-27T09:21:20.439Z,6.00
2022-09-27T09:22:20.462Z,8.10
2022-09-27T09:23:20.402Z,4.50
2022-09-27T09:24:20.377Z,4.80
2022-09-27T09:25:20.371Z,5.10
2022-09-27T09:26:20.447Z,5.90
2022-09-27T09:27:20.351Z,5.70
2022-09-27T09:28:20.318Z,4.50
2022-09-27T09:29:20.350Z,4.70
2022-09-27T09:30:20.320Z,5.40
2022-09-27T09:31:20.379Z,5.20
2022-09-27T09:32:20.271Z,4.20
2022-09-27T09:33:20.307Z,4.50
2022-09-27T09:34:20.242Z,4.40
2022-09-27T09:35:20.248Z,5.00
2022-09-27T09:36:20.221Z,4.70
2022-09-27T09:37:20.270Z,4.80
2022-09-27T09:38:20.192Z,5.20
2022-09-27T09:39:20.186Z,5.50
2022-09-27T09:40:20.275Z,5.70
2022-09-27T09:41:20.167Z,7.20
2022-09-27T09:42:20.167Z,4.30
2022-09-27T09:43:20.154Z,6.70
2022-09-27T09:44:20.117Z,2.50
2022-09-27T09:45:20.111Z,3.90
2022-09-27T09:46:20.116Z,3.30
2022-09-27T09:47:20.123Z,4.30
2022-09-27T09:48:20.056Z,3.60
2022-09-27T09:49:20.120Z,3.10
2022-09-27T09:50:20.038Z,4.30
2022-09-27T09:51:20.051Z,2.70
2022-09-27T09:52:20.077Z,2.90
2022-09-27T09:53:20.009Z,2.90
2022-09-27T09:54:19.983Z,3.00
2022-09-27T09:55:19.999Z,2.20
2022-09-27T09:56:19.970Z,4.00
2022-09-27T09:57:19.992Z,1.80
2022-09-27T09:58:20.256Z,2.60
2022-09-27T09:59:19.946Z,3.10
2022-09-27T10:00:19.907Z,3.60
2022-09-27T10:01:20.002Z,3.00
2022-09-27T10:02:19.984Z,2.00
2022-09-27T10:03:19.915Z,1.80
2022-09-27T10:04:19.860Z,2.10
2022-09-27T10:05:19.860Z,2.50
2022-09-27T10:06:19.891Z,1.90
2022-09-27T10:07:19.829Z,2.50
2022-09-27T10:08:19.839Z,2.00
2022-09-27T10:09:19.815Z,4.00
2022-09-27T10:10:19.852Z,3.30
2022-09-27T10:11:19.771Z,2.20
2022-09-27T10:12:19.764Z,3.20
2022-09-27T10:13:19.841Z,4.10
2022-09-27T10:14:19.740Z,3.60
2022-09-27T10:15:19.709Z,3.50
2022-09-27T10:16:19.758Z,4.20
2022-09-27T10:17:19.689Z,3.60
2022-09-27T10:18:19.699Z,3.40
2022-09-27T10:19:19.726Z,5.80
2022-09-27T10:20:19.738Z,5.20
2022-09-27T10:21:19.630Z,3.90
2022-09-27T10:22:19.642Z,5.20
2022-09-27T10:23:19.672Z,5.50
2022-09-27T10:24:20.270Z,4.00
2022-09-27T10:25:19.581Z,5.30
2022-09-27T10:26:19.591Z,4.90
2022-09-27T10:27:19.551Z,6.90
2022-09-27T10:28:19.596Z,4.20
2022-09-27T10:29:19.581Z,5.60
2022-09-27T10:30:19.625Z,6.40
2022-09-27T10:31:19.560Z,4.90
2022-09-27T10:32:19.551Z,4.90
2022-09-27T10:33:19.486Z,7.10
2022-09-27T10:34:19.480Z,5.80
2022-09-27T10:35:23.560Z,5.40
2022-09-27T10:36:19.469Z,4.60
2022-09-27T10:37:19.450Z,5.80
2022-09-27T10:38:19.427Z,6.90
2022-09-27T10:39:19.433Z,4.10
2022-09-27T10:40:19.501Z,4.50
2022-09-27T10:41:19.408Z,4.10
2022-09-27T10:42:19.380Z,5.50
2022-09-27T10:43:19.376Z,4.30
2022-09-27T10:44:19.365Z,3.00
2022-09-27T10:45:19.337Z,4.60
2022-09-27T10:46:19.382Z,5.20
2022-09-27T10:47:19.306Z,4.50
2022-09-27T10:48:19.305Z,4.20
2022-09-27T10:49:19.350Z,4.70
2022-09-27T10:50:38.867Z,3.00
2022-09-27T10:51:19.254Z,4.10
2022-09-27T10:52:19.311Z,3.90
2022-09-27T10:53:19.226Z,3.90
2022-09-27T10:54:19.232Z,4.50
2022-09-27T10:55:19.189Z,3.70
2022-09-27T10:56:19.180Z,3.40
2022-09-27T10:57:19.183Z,3.30
2022-09-27T10:58:19.191Z,4.00
2022-09-27T10:59:19.132Z,3.90
2022-09-27T11:00:19.237Z,7.10
2022-09-27T11:01:19.171Z,3.40
2022-09-27T11:02:19.119Z,3.20
2022-09-27T11:03:19.087Z,3.60
2022-09-27T11:04:19.408Z,3.80
2022-09-27T11:05:19.068Z,3.50
2022-09-27T11:06:19.054Z,3.30
2022-09-27T11:07:19.041Z,4.20
2022-09-27T11:08:19.032Z,5.20
2022-09-27T11:09:19.017Z,4.20
2022-09-27T11:10:19.168Z,6.40
2022-09-27T11:11:18.990Z,4.40
2022-09-27T11:12:18.989Z,3.60
2022-09-27T11:13:18.958Z,4.60
2022-09-27T11:14:18.970Z,4.70
2022-09-27T11:15:18.926Z,3.60
2022-09-27T11:16:19.002Z,5.00
2022-09-27T11:17:19.055Z,4.30
2022-09-27T11:18:18.904Z,4.80
2022-09-27T11:19:18.867Z,4.90
2022-09-27T11:20:19.014Z,4.10
2022-09-27T11:21:18.877Z,4.70
2022-09-27T11:22:18.843Z,5.10
2022-09-27T11:23:18.827Z,3.60
2022-09-27T11:24:18.868Z,4.90
2022-09-27T11:25:18.786Z,4.10
2022-09-27T11:26:18.787Z,4.00
2022-09-27T11:27:18.850Z,5.20
2022-09-27T11:28:18.767Z,4.40
2022-09-27T11:29:18.730Z,4.40
2022-09-27T11:30:18.875Z,4.80
2022-09-27T11:31:20.012Z,4.10
2022-09-27T11:32:18.722Z,3.60
2022-09-27T11:33:18.720Z,4.00
2022-09-27T11:34:18.752Z,3.70
2022-09-27T11:35:18.653Z,3.40
2022-09-27T11:36:18.676Z,5.60
2022-09-27T11:37:18.631Z,4.20
2022-09-27T11:38:40.894Z,3.40
2022-09-27T11:39:18.825Z,4.00
2022-09-27T11:40:18.738Z,3.50
2022-09-27T11:41:18.585Z,2.40
2022-09-27T11:42:18.580Z,5.60
2022-09-27T11:43:18.566Z,4.50
2022-09-27T11:44:18.564Z,6.50
2022-09-27T11:46:25.400Z,3.20
2022-09-27T11:47:18.633Z,4.80
2022-09-27T11:48:18.505Z,4.60
2022-09-27T11:49:18.487Z,5.40
2022-09-27T11:50:18.490Z,5.60
2022-09-27T11:51:18.497Z,4.50
2022-09-27T11:52:18.457Z,5.80
2022-09-27T11:53:18.437Z,4.30
2022-09-27T11:54:18.423Z,5.30
2022-09-27T11:55:18.394Z,6.20
2022-09-27T11:56:18.403Z,5.80
2022-09-27T11:57:18.435Z,5.70
2022-09-27T11:58:18.394Z,4.70
2022-09-27T11:59:22.447Z,3.30
2022-09-27T12:00:18.358Z,3.80
2022-09-27T12:01:18.438Z,3.80
2022-09-27T12:02:18.395Z,2.00
2022-09-27T12:03:18.333Z,3.40
2022-09-27T12:04:18.302Z,2.10
2022-09-27T12:05:18.317Z,3.30
2022-09-27T12:06:18.273Z,3.00
2022-09-27T12:07:18.241Z,2.10
2022-09-27T12:08:18.325Z,3.10
2022-09-27T12:09:18.252Z,4.80
2022-09-27T12:10:18.238Z,3.40
2022-09-27T12:11:18.203Z,3.20
2022-09-27T12:12:18.284Z,2.30
2022-09-27T12:13:18.168Z,3.10
2022-09-27T12:14:18.188Z,2.70
2022-09-27T12:15:18.140Z,3.20
2022-09-27T12:16:18.182Z,2.30
2022-09-27T12:17:18.137Z,3.90
2022-09-27T12:18:18.114Z,3.30
2022-09-27T12:19:18.159Z,3.00
2022-09-27T12:20:18.103Z,4.60
2022-09-27T12:21:18.092Z,2.60
2022-09-27T12:22:29.818Z,3.40
2022-09-27T12:23:18.041Z,3.50
2022-09-27T12:24:18.159Z,2.80
2022-09-27T12:25:20.719Z,3.60
2022-09-27T12:26:17.999Z,2.80
2022-09-27T12:27:17.991Z,3.50
2022-09-27T12:28:17.987Z,3.10
2022-09-27T12:29:18.168Z,2.60
2022-09-27T12:30:18.007Z,1.50
2022-09-27T12:42:44.310Z,2.70
2022-09-27T12:42:49.357Z,1.60
2022-09-27T12:43:49.785Z,4.20
2022-09-27T12:44:50.780Z,2.60
2022-09-27T12:45:49.342Z,1.70
2022-09-27T12:46:49.460Z,1.90
2022-09-27T12:47:49.295Z,2.40
2022-09-27T12:48:49.270Z,1.20
2022-09-27T12:49:49.298Z,1.90
2022-09-27T12:50:49.244Z,1.40
2022-09-27T12:51:49.250Z,2.90
2022-09-27T12:52:49.256Z,2.90
2022-09-27T12:53:49.228Z,3.90
2022-09-27T12:54:49.253Z,2.00
2022-09-27T12:55:49.188Z,1.50
2022-09-27T12:56:49.162Z,3.10
2022-09-27T12:57:49.173Z,2.00
2022-09-27T12:58:49.210Z,1.00
2022-09-27T12:59:49.145Z,2.10
2022-09-27T13:00:49.147Z,2.20
2022-09-27T13:01:49.223Z,1.80
2022-09-27T13:03:14.219Z,1.70
2022-09-27T13:03:49.091Z,1.60
2022-09-27T13:04:49.096Z,4.00
2022-09-27T13:05:49.058Z,2.00
2022-09-27T13:06:49.033Z,2.70
2022-09-27T13:07:49.047Z,1.80
2022-09-27T13:08:53.802Z,1.70
2022-09-27T13:09:49.017Z,1.40
2022-09-27T13:10:49.006Z,1.90
2022-09-27T13:11:48.990Z,3.50
2022-09-27T13:12:48.957Z,2.60
2022-09-27T13:13:48.962Z,2.40
2022-09-27T13:14:48.951Z,5.70
2022-09-27T13:15:48.973Z,2.80
2022-09-27T13:16:48.957Z,3.30
2022-09-27T13:17:48.904Z,1.80
2022-09-27T13:18:48.881Z,2.40
2022-09-27T13:19:48.891Z,3.60
2022-09-27T13:20:48.907Z,2.50